sensor_id;sensor_type;location;lat;lon;timestamp;temperature;humidity
40059;SHT31;25763;49.972;8.568;2023-02-28T00:00:42;0.29;65.78
40059;SHT31;25763;49.972;8.568;2023-02-28T00:03:08;0.23;65.80
40059;SHT31;25763;49.972;8.568;2023-02-28T00:05:33;0.27;65.77
40059;SHT31;25763;49.972;8.568;2023-02-28T00:07:59;0.36;65.57
40059;SHT31;25763;49.972;8.568;2023-02-28T00:10:27;0.42;65.44
40059;SHT31;25763;49.972;8.568;2023-02-28T00:12:54;0.47;65.32
40059;SHT31;25763;49.972;8.568;2023-02-28T00:15:22;0.47;65.31
40059;SHT31;25763;49.972;8.568;2023-02-28T00:17:48;0.54;65.30
40059;SHT31;25763;49.972;8.568;2023-02-28T00:20:14;0.52;65.38
40059;SHT31;25763;49.972;8.568;2023-02-28T00:22:43;0.54;65.41
40059;SHT31;25763;49.972;8.568;2023-02-28T00:25:10;0.57;65.36
40059;SHT31;25763;49.972;8.568;2023-02-28T00:27:37;0.59;65.33
40059;SHT31;25763;49.972;8.568;2023-02-28T00:30:03;0.57;65.55
40059;SHT31;25763;49.972;8.568;2023-02-28T00:32:29;0.55;65.64
40059;SHT31;25763;49.972;8.568;2023-02-28T00:34:55;0.55;65.69
40059;SHT31;25763;49.972;8.568;2023-02-28T00:37:20;0.57;65.81
40059;SHT31;25763;49.972;8.568;2023-02-28T00:39:45;0.55;65.93
40059;SHT31;25763;49.972;8.568;2023-02-28T00:42:11;0.54;66.01
40059;SHT31;25763;49.972;8.568;2023-02-28T00:44:36;0.52;66.16
40059;SHT31;25763;49.972;8.568;2023-02-28T00:47:01;0.48;66.25
40059;SHT31;25763;49.972;8.568;2023-02-28T00:49:27;0.48;66.34
40059;SHT31;25763;49.972;8.568;2023-02-28T00:51:53;0.45;66.50
40059;SHT31;25763;49.972;8.568;2023-02-28T00:54:19;0.44;66.56
40059;SHT31;25763;49.972;8.568;2023-02-28T00:56:45;0.42;66.77
40059;SHT31;25763;49.972;8.568;2023-02-28T00:59:12;0.40;66.85
40059;SHT31;25763;49.972;8.568;2023-02-28T01:01:37;0.36;67.05
40059;SHT31;25763;49.972;8.568;2023-02-28T01:04:02;0.34;67.26
40059;SHT31;25763;49.972;8.568;2023-02-28T01:06:28;0.29;67.32
40059;SHT31;25763;49.972;8.568;2023-02-28T01:08:53;0.29;67.49
40059;SHT31;25763;49.972;8.568;2023-02-28T01:11:19;0.30;67.53
40059;SHT31;25763;49.972;8.568;2023-02-28T01:13:45;0.24;67.68
40059;SHT31;25763;49.972;8.568;2023-02-28T01:16:11;0.23;67.91
40059;SHT31;25763;49.972;8.568;2023-02-28T01:18:37;0.17;68.16
40059;SHT31;25763;49.972;8.568;2023-02-28T01:21:07;0.16;68.37
40059;SHT31;25763;49.972;8.568;2023-02-28T01:23:33;0.12;68.57
40059;SHT31;25763;49.972;8.568;2023-02-28T01:26:16;0.09;68.78
40059;SHT31;25763;49.972;8.568;2023-02-28T01:28:42;0.07;69.07
40059;SHT31;25763;49.972;8.568;2023-02-28T01:31:08;0.02;69.20
40059;SHT31;25763;49.972;8.568;2023-02-28T01:33:34;0.00;69.54
40059;SHT31;25763;49.972;8.568;2023-02-28T01:36:02;-0.04;69.64
40059;SHT31;25763;49.972;8.568;2023-02-28T01:38:28;-0.05;69.94
40059;SHT31;25763;49.972;8.568;2023-02-28T01:40:54;-0.07;70.02
40059;SHT31;25763;49.972;8.568;2023-02-28T01:43:25;-0.11;70.28
40059;SHT31;25763;49.972;8.568;2023-02-28T01:45:51;-0.12;70.36
40059;SHT31;25763;49.972;8.568;2023-02-28T01:48:17;-0.11;70.58
40059;SHT31;25763;49.972;8.568;2023-02-28T01:50:45;-0.15;70.86
40059;SHT31;25763;49.972;8.568;2023-02-28T01:53:14;-0.18;71.16
40059;SHT31;25763;49.972;8.568;2023-02-28T01:55:42;-0.18;71.15
40059;SHT31;25763;49.972;8.568;2023-02-28T01:58:10;-0.21;71.37
40059;SHT31;25763;49.972;8.568;2023-02-28T02:00:35;-0.22;71.55
40059;SHT31;25763;49.972;8.568;2023-02-28T02:03:08;-0.23;71.65
40059;SHT31;25763;49.972;8.568;2023-02-28T02:05:36;-0.23;71.59
40059;SHT31;25763;49.972;8.568;2023-02-28T02:08:05;-0.23;71.76
40059;SHT31;25763;49.972;8.568;2023-02-28T02:10:39;-0.30;72.37
40059;SHT31;25763;49.972;8.568;2023-02-28T02:13:27;-0.25;72.44
40059;SHT31;25763;49.972;8.568;2023-02-28T02:18:39;-0.28;72.60
40059;SHT31;25763;49.972;8.568;2023-02-28T02:31:56;-0.33;73.05
40059;SHT31;25763;49.972;8.568;2023-02-28T02:35:01;-0.39;73.33
40059;SHT31;25763;49.972;8.568;2023-02-28T02:37:51;-0.36;73.35
40059;SHT31;25763;49.972;8.568;2023-02-28T02:40:20;-0.37;73.48
40059;SHT31;25763;49.972;8.568;2023-02-28T02:48:19;-0.42;73.71
40059;SHT31;25763;49.972;8.568;2023-02-28T02:50:50;-0.46;73.81
40059;SHT31;25763;49.972;8.568;2023-02-28T02:53:17;-0.42;73.64
40059;SHT31;25763;49.972;8.568;2023-02-28T02:55:46;-0.42;73.62
40059;SHT31;25763;49.972;8.568;2023-02-28T02:58:16;-0.37;73.60
40059;SHT31;25763;49.972;8.568;2023-02-28T03:00:50;-0.42;73.88
40059;SHT31;25763;49.972;8.568;2023-02-28T03:03:18;-0.45;73.85
40059;SHT31;25763;49.972;8.568;2023-02-28T03:05:47;-0.46;73.89
40059;SHT31;25763;49.972;8.568;2023-02-28T03:08:13;-0.40;73.78
40059;SHT31;25763;49.972;8.568;2023-02-28T03:10:48;-0.47;73.87
40059;SHT31;25763;49.972;8.568;2023-02-28T03:16:28;-0.52;73.84
40059;SHT31;25763;49.972;8.568;2023-02-28T03:24:14;-0.54;73.71
40059;SHT31;25763;49.972;8.568;2023-02-28T03:26:45;-0.52;73.54
40059;SHT31;25763;49.972;8.568;2023-02-28T03:31:50;-0.50;73.42
40059;SHT31;25763;49.972;8.568;2023-02-28T03:34:23;-0.52;73.46
40059;SHT31;25763;49.972;8.568;2023-02-28T03:36:57;-0.56;73.47
40059;SHT31;25763;49.972;8.568;2023-02-28T03:39:29;-0.57;73.46
40059;SHT31;25763;49.972;8.568;2023-02-28T03:42:01;-0.58;73.51
40059;SHT31;25763;49.972;8.568;2023-02-28T03:47:10;-0.58;73.35
40059;SHT31;25763;49.972;8.568;2023-02-28T03:49:47;-0.65;73.49
40059;SHT31;25763;49.972;8.568;2023-02-28T03:52:15;-0.70;73.69
40059;SHT31;25763;49.972;8.568;2023-02-28T03:54:48;-0.74;73.82
40059;SHT31;25763;49.972;8.568;2023-02-28T03:57:39;-0.71;73.66
40059;SHT31;25763;49.972;8.568;2023-02-28T04:00:10;-0.71;73.53
40059;SHT31;25763;49.972;8.568;2023-02-28T04:02:39;-0.68;73.44
40059;SHT31;25763;49.972;8.568;2023-02-28T04:05:05;-0.70;73.41
40059;SHT31;25763;49.972;8.568;2023-02-28T04:07:32;-0.77;73.53
40059;SHT31;25763;49.972;8.568;2023-02-28T04:09:58;-0.75;73.49
40059;SHT31;25763;49.972;8.568;2023-02-28T04:12:24;-0.71;73.35
40059;SHT31;25763;49.972;8.568;2023-02-28T04:14:49;-0.74;73.19
40059;SHT31;25763;49.972;8.568;2023-02-28T04:17:15;-0.74;73.13
40059;SHT31;25763;49.972;8.568;2023-02-28T04:19:41;-0.70;73.07
40059;SHT31;25763;49.972;8.568;2023-02-28T04:22:08;-0.67;72.92
40059;SHT31;25763;49.972;8.568;2023-02-28T04:24:33;-0.70;72.90
40059;SHT31;25763;49.972;8.568;2023-02-28T04:26:59;-0.63;72.67
40059;SHT31;25763;49.972;8.568;2023-02-28T04:29:29;-0.67;72.69
40059;SHT31;25763;49.972;8.568;2023-02-28T04:31:56;-0.75;72.80
40059;SHT31;25763;49.972;8.568;2023-02-28T04:34:25;-0.70;72.73
40059;SHT31;25763;49.972;8.568;2023-02-28T04:36:51;-0.70;72.67
40059;SHT31;25763;49.972;8.568;2023-02-28T04:39:20;-0.68;72.72
40059;SHT31;25763;49.972;8.568;2023-02-28T04:41:45;-0.68;72.68
40059;SHT31;25763;49.972;8.568;2023-02-28T04:44:11;-0.65;72.68
40059;SHT31;25763;49.972;8.568;2023-02-28T04:46:37;-0.65;72.64
40059;SHT31;25763;49.972;8.568;2023-02-28T04:49:02;-0.70;72.86
40059;SHT31;25763;49.972;8.568;2023-02-28T04:51:28;-0.60;72.74
40059;SHT31;25763;49.972;8.568;2023-02-28T04:53:53;-0.58;72.61
40059;SHT31;25763;49.972;8.568;2023-02-28T04:56:19;-0.46;72.19
40059;SHT31;25763;49.972;8.568;2023-02-28T04:58:45;-0.53;72.18
40059;SHT31;25763;49.972;8.568;2023-02-28T05:01:26;-0.53;72.24
40059;SHT31;25763;49.972;8.568;2023-02-28T05:03:53;-0.60;72.25
40059;SHT31;25763;49.972;8.568;2023-02-28T05:06:19;-0.58;72.32
40059;SHT31;25763;49.972;8.568;2023-02-28T05:08:45;-0.61;72.18
40059;SHT31;25763;49.972;8.568;2023-02-28T05:11:18;-0.63;72.16
40059;SHT31;25763;49.972;8.568;2023-02-28T05:13:43;-0.67;72.11
40059;SHT31;25763;49.972;8.568;2023-02-28T05:16:09;-0.68;72.21
40059;SHT31;25763;49.972;8.568;2023-02-28T05:18:35;-0.68;72.05
40059;SHT31;25763;49.972;8.568;2023-02-28T05:21:00;-0.71;72.06
40059;SHT31;25763;49.972;8.568;2023-02-28T05:23:29;-0.70;71.97
40059;SHT31;25763;49.972;8.568;2023-02-28T05:25:54;-0.75;72.05
40059;SHT31;25763;49.972;8.568;2023-02-28T05:28:20;-0.72;72.05
40059;SHT31;25763;49.972;8.568;2023-02-28T05:30:46;-0.78;72.03
40059;SHT31;25763;49.972;8.568;2023-02-28T05:33:12;-0.84;72.28
40059;SHT31;25763;49.972;8.568;2023-02-28T05:35:41;-0.87;72.30
40059;SHT31;25763;49.972;8.568;2023-02-28T05:38:07;-0.84;72.16
40059;SHT31;25763;49.972;8.568;2023-02-28T05:40:33;-0.82;72.13
40059;SHT31;25763;49.972;8.568;2023-02-28T05:42:58;-0.87;72.11
40059;SHT31;25763;49.972;8.568;2023-02-28T05:45:23;-0.88;72.28
40059;SHT31;25763;49.972;8.568;2023-02-28T05:47:53;-0.87;72.19
40059;SHT31;25763;49.972;8.568;2023-02-28T05:50:18;-0.93;72.37
40059;SHT31;25763;49.972;8.568;2023-02-28T05:52:44;-0.93;72.51
40059;SHT31;25763;49.972;8.568;2023-02-28T05:55:09;-0.96;72.59
40059;SHT31;25763;49.972;8.568;2023-02-28T05:57:34;-1.00;72.59
40059;SHT31;25763;49.972;8.568;2023-02-28T06:00:00;-0.98;72.41
40059;SHT31;25763;49.972;8.568;2023-02-28T06:02:25;-0.98;72.50
40059;SHT31;25763;49.972;8.568;2023-02-28T06:04:50;-0.93;72.44
40059;SHT31;25763;49.972;8.568;2023-02-28T06:07:16;-1.03;72.59
40059;SHT31;25763;49.972;8.568;2023-02-28T06:09:42;-1.02;72.63
40059;SHT31;25763;49.972;8.568;2023-02-28T06:12:08;-0.98;72.58
40059;SHT31;25763;49.972;8.568;2023-02-28T06:14:35;-1.03;72.81
40059;SHT31;25763;49.972;8.568;2023-02-28T06:17:01;-1.03;72.70
40059;SHT31;25763;49.972;8.568;2023-02-28T06:19:27;-1.11;72.88
40059;SHT31;25763;49.972;8.568;2023-02-28T06:21:54;-1.06;72.98
40059;SHT31;25763;49.972;8.568;2023-02-28T06:24:23;-1.08;73.01
40059;SHT31;25763;49.972;8.568;2023-02-28T06:26:49;-1.02;72.86
40059;SHT31;25763;49.972;8.568;2023-02-28T06:29:14;-1.02;72.81
40059;SHT31;25763;49.972;8.568;2023-02-28T06:31:46;-1.02;72.89
40059;SHT31;25763;49.972;8.568;2023-02-28T06:34:12;-1.03;72.80
40059;SHT31;25763;49.972;8.568;2023-02-28T06:36:39;-0.96;72.60
40059;SHT31;25763;49.972;8.568;2023-02-28T06:39:05;-0.88;72.41
40059;SHT31;25763;49.972;8.568;2023-02-28T06:41:30;-0.79;72.13
40059;SHT31;25763;49.972;8.568;2023-02-28T06:43:56;-0.82;72.00
40059;SHT31;25763;49.972;8.568;2023-02-28T06:46:21;-0.74;71.83
40059;SHT31;25763;49.972;8.568;2023-02-28T06:48:47;-0.72;71.84
40059;SHT31;25763;49.972;8.568;2023-02-28T06:51:16;-0.71;71.50
40059;SHT31;25763;49.972;8.568;2023-02-28T06:53:42;-0.61;71.37
40059;SHT31;25763;49.972;8.568;2023-02-28T06:56:10;-0.52;71.09
40059;SHT31;25763;49.972;8.568;2023-02-28T06:58:36;-0.45;70.87
40059;SHT31;25763;49.972;8.568;2023-02-28T07:01:03;-0.47;70.46
40059;SHT31;25763;49.972;8.568;2023-02-28T07:03:29;-0.39;70.50
40059;SHT31;25763;49.972;8.568;2023-02-28T07:05:54;-0.25;70.30
40059;SHT31;25763;49.972;8.568;2023-02-28T07:08:24;-0.14;69.77
40059;SHT31;25763;49.972;8.568;2023-02-28T07:10:54;-0.02;69.58
40059;SHT31;25763;49.972;8.568;2023-02-28T07:13:20;0.09;69.10
40059;SHT31;25763;49.972;8.568;2023-02-28T07:16:00;0.10;68.15
40059;SHT31;25763;49.972;8.568;2023-02-28T07:18:26;0.27;67.40
40059;SHT31;25763;49.972;8.568;2023-02-28T07:20:52;0.30;66.93
40059;SHT31;25763;49.972;8.568;2023-02-28T07:23:18;0.44;66.89
40059;SHT31;25763;49.972;8.568;2023-02-28T07:25:43;0.59;66.15
40059;SHT31;25763;49.972;8.568;2023-02-28T07:28:11;0.61;65.51
40059;SHT31;25763;49.972;8.568;2023-02-28T07:30:36;0.64;64.73
40059;SHT31;25763;49.972;8.568;2023-02-28T07:33:01;0.70;64.16
40059;SHT31;25763;49.972;8.568;2023-02-28T07:35:27;0.93;64.32
40059;SHT31;25763;49.972;8.568;2023-02-28T07:37:52;1.12;63.36
40059;SHT31;25763;49.972;8.568;2023-02-28T07:40:18;1.04;62.85
40059;SHT31;25763;49.972;8.568;2023-02-28T07:42:44;1.16;63.05
40059;SHT31;25763;49.972;8.568;2023-02-28T07:45:10;1.21;62.69
40059;SHT31;25763;49.972;8.568;2023-02-28T07:47:38;1.45;62.19
40059;SHT31;25763;49.972;8.568;2023-02-28T07:50:05;1.53;62.00
40059;SHT31;25763;49.972;8.568;2023-02-28T07:52:30;1.45;61.41
40059;SHT31;25763;49.972;8.568;2023-02-28T07:54:56;1.60;61.32
40059;SHT31;25763;49.972;8.568;2023-02-28T07:57:21;1.58;60.75
40059;SHT31;25763;49.972;8.568;2023-02-28T07:59:47;1.76;60.78
40059;SHT31;25763;49.972;8.568;2023-02-28T08:02:14;1.87;60.67
40059;SHT31;25763;49.972;8.568;2023-02-28T08:04:40;1.98;59.99
40059;SHT31;25763;49.972;8.568;2023-02-28T08:07:05;2.02;59.73
40059;SHT31;25763;49.972;8.568;2023-02-28T08:09:31;1.95;59.26
40059;SHT31;25763;49.972;8.568;2023-02-28T08:11:56;1.95;59.39
40059;SHT31;25763;49.972;8.568;2023-02-28T08:14:21;2.11;59.40
40059;SHT31;25763;49.972;8.568;2023-02-28T08:16:47;2.13;58.75
40059;SHT31;25763;49.972;8.568;2023-02-28T08:19:12;2.25;58.67
40059;SHT31;25763;49.972;8.568;2023-02-28T08:21:37;2.35;58.57
40059;SHT31;25763;49.972;8.568;2023-02-28T08:24:03;2.53;58.24
40059;SHT31;25763;49.972;8.568;2023-02-28T08:26:28;2.53;58.55
40059;SHT31;25763;49.972;8.568;2023-02-28T08:28:53;2.50;57.56
40059;SHT31;25763;49.972;8.568;2023-02-28T08:31:19;2.49;57.86
40059;SHT31;25763;49.972;8.568;2023-02-28T08:33:45;2.63;57.32
40059;SHT31;25763;49.972;8.568;2023-02-28T08:36:11;2.29;57.88
40059;SHT31;25763;49.972;8.568;2023-02-28T08:38:37;2.56;57.21
40059;SHT31;25763;49.972;8.568;2023-02-28T08:41:06;2.60;56.12
40059;SHT31;25763;49.972;8.568;2023-02-28T08:43:35;2.53;55.51
40059;SHT31;25763;49.972;8.568;2023-02-28T08:46:00;2.35;56.29
40059;SHT31;25763;49.972;8.568;2023-02-28T08:48:27;2.58;56.33
40059;SHT31;25763;49.972;8.568;2023-02-28T08:51:01;2.67;55.20
40059;SHT31;25763;49.972;8.568;2023-02-28T08:53:27;2.88;54.97
40059;SHT31;25763;49.972;8.568;2023-02-28T08:56:12;2.93;54.36
40059;SHT31;25763;49.972;8.568;2023-02-28T08:58:38;3.19;55.57
40059;SHT31;25763;49.972;8.568;2023-02-28T09:01:08;3.15;53.54
40059;SHT31;25763;49.972;8.568;2023-02-28T09:03:34;2.85;54.48
40059;SHT31;25763;49.972;8.568;2023-02-28T09:06:00;3.05;53.64
40059;SHT31;25763;49.972;8.568;2023-02-28T09:08:27;2.80;54.21
40059;SHT31;25763;49.972;8.568;2023-02-28T09:10:53;3.15;54.09
40059;SHT31;25763;49.972;8.568;2023-02-28T09:13:19;3.13;53.57
40059;SHT31;25763;49.972;8.568;2023-02-28T09:15:45;3.15;53.54
40059;SHT31;25763;49.972;8.568;2023-02-28T09:18:11;3.26;53.23
40059;SHT31;25763;49.972;8.568;2023-02-28T09:20:40;3.40;53.01
40059;SHT31;25763;49.972;8.568;2023-02-28T09:23:07;3.52;52.46
40059;SHT31;25763;49.972;8.568;2023-02-28T09:25:33;3.24;52.46
40059;SHT31;25763;49.972;8.568;2023-02-28T09:27:58;3.46;52.58
40059;SHT31;25763;49.972;8.568;2023-02-28T09:30:24;3.68;52.09
40059;SHT31;25763;49.972;8.568;2023-02-28T09:32:49;3.61;52.40
40059;SHT31;25763;49.972;8.568;2023-02-28T09:35:18;3.58;52.66
40059;SHT31;25763;49.972;8.568;2023-02-28T09:37:44;3.74;52.09
40059;SHT31;25763;49.972;8.568;2023-02-28T09:40:11;3.52;51.62
40059;SHT31;25763;49.972;8.568;2023-02-28T09:42:37;3.47;51.90
40059;SHT31;25763;49.972;8.568;2023-02-28T09:45:10;3.89;52.27
40059;SHT31;25763;49.972;8.568;2023-02-28T09:47:40;3.58;52.16
40059;SHT31;25763;49.972;8.568;2023-02-28T09:52:49;3.28;52.45
40059;SHT31;25763;49.972;8.568;2023-02-28T09:55:20;3.19;52.94
40059;SHT31;25763;49.972;8.568;2023-02-28T09:57:48;3.22;52.71
40059;SHT31;25763;49.972;8.568;2023-02-28T10:03:17;3.52;52.47
40059;SHT31;25763;49.972;8.568;2023-02-28T10:06:35;3.96;51.58
40059;SHT31;25763;49.972;8.568;2023-02-28T10:08:56;3.50;51.94
40059;SHT31;25763;49.972;8.568;2023-02-28T10:11:23;3.92;51.06
40059;SHT31;25763;49.972;8.568;2023-02-28T10:16:48;3.72;50.80
40059;SHT31;25763;49.972;8.568;2023-02-28T10:19:33;3.55;51.36
40059;SHT31;25763;49.972;8.568;2023-02-28T10:22:10;3.55;49.98
40059;SHT31;25763;49.972;8.568;2023-02-28T10:24:45;3.50;50.17
40059;SHT31;25763;49.972;8.568;2023-02-28T10:27:23;3.89;49.62
40059;SHT31;25763;49.972;8.568;2023-02-28T10:29:54;4.39;48.51
40059;SHT31;25763;49.972;8.568;2023-02-28T10:37:40;5.13;45.63
40059;SHT31;25763;49.972;8.568;2023-02-28T10:40:25;4.93;45.89
40059;SHT31;25763;49.972;8.568;2023-02-28T10:45:28;4.52;46.53
40059;SHT31;25763;49.972;8.568;2023-02-28T10:58:55;4.65;47.24
40059;SHT31;25763;49.972;8.568;2023-02-28T11:03:50;5.28;45.38
40059;SHT31;25763;49.972;8.568;2023-02-28T11:06:22;5.48;45.23
40059;SHT31;25763;49.972;8.568;2023-02-28T11:08:58;5.26;45.16
40059;SHT31;25763;49.972;8.568;2023-02-28T11:11:26;5.51;45.31
40059;SHT31;25763;49.972;8.568;2023-02-28T11:13:54;5.60;44.74
40059;SHT31;25763;49.972;8.568;2023-02-28T11:16:21;5.47;44.72
40059;SHT31;25763;49.972;8.568;2023-02-28T11:18:54;5.26;44.68
40059;SHT31;25763;49.972;8.568;2023-02-28T11:21:26;5.28;44.76
40059;SHT31;25763;49.972;8.568;2023-02-28T11:26:36;5.92;44.29
40059;SHT31;25763;49.972;8.568;2023-02-28T11:29:19;5.56;44.06
40059;SHT31;25763;49.972;8.568;2023-02-28T11:34:37;5.19;45.03
40059;SHT31;25763;49.972;8.568;2023-02-28T11:37:04;5.94;44.69
40059;SHT31;25763;49.972;8.568;2023-02-28T11:39:32;5.46;44.17
40059;SHT31;25763;49.972;8.568;2023-02-28T11:45:15;5.74;44.30
40059;SHT31;25763;49.972;8.568;2023-02-28T11:48:27;5.33;45.98
40059;SHT31;25763;49.972;8.568;2023-02-28T11:51:02;5.63;45.51
40059;SHT31;25763;49.972;8.568;2023-02-28T11:53:50;5.87;44.83
40059;SHT31;25763;49.972;8.568;2023-02-28T11:56:32;5.56;45.00
40059;SHT31;25763;49.972;8.568;2023-02-28T12:06:44;6.03;44.01
40059;SHT31;25763;49.972;8.568;2023-02-28T12:09:23;6.10;43.47
40059;SHT31;25763;49.972;8.568;2023-02-28T12:15:03;5.97;44.05
40059;SHT31;25763;49.972;8.568;2023-02-28T12:20:13;6.09;43.09
40059;SHT31;25763;49.972;8.568;2023-02-28T12:23:10;5.95;43.51
40059;SHT31;25763;49.972;8.568;2023-02-28T12:28:25;5.97;43.66
40059;SHT31;25763;49.972;8.568;2023-02-28T12:30:59;6.12;44.23
40059;SHT31;25763;49.972;8.568;2023-02-28T12:33:31;6.40;43.52
40059;SHT31;25763;49.972;8.568;2023-02-28T12:35:59;5.94;44.25
40059;SHT31;25763;49.972;8.568;2023-02-28T12:38:44;6.36;43.56
40059;SHT31;25763;49.972;8.568;2023-02-28T12:41:14;6.17;43.51
40059;SHT31;25763;49.972;8.568;2023-02-28T12:43:45;6.44;43.81
40059;SHT31;25763;49.972;8.568;2023-02-28T12:46:19;6.36;43.49
40059;SHT31;25763;49.972;8.568;2023-02-28T12:48:50;6.13;44.36
40059;SHT31;25763;49.972;8.568;2023-02-28T12:51:17;5.84;44.77
40059;SHT31;25763;49.972;8.568;2023-02-28T13:02:21;6.17;43.31
40059;SHT31;25763;49.972;8.568;2023-02-28T13:05:06;5.98;43.05
40059;SHT31;25763;49.972;8.568;2023-02-28T13:10:47;6.37;42.57
40059;SHT31;25763;49.972;8.568;2023-02-28T13:13:22;6.42;42.79
40059;SHT31;25763;49.972;8.568;2023-02-28T13:15:59;6.51;43.61
40059;SHT31;25763;49.972;8.568;2023-02-28T13:18:34;6.58;43.28
40059;SHT31;25763;49.972;8.568;2023-02-28T13:21:02;6.30;42.71
40059;SHT31;25763;49.972;8.568;2023-02-28T13:24:02;6.33;42.43
40059;SHT31;25763;49.972;8.568;2023-02-28T13:34:37;6.15;43.28
40059;SHT31;25763;49.972;8.568;2023-02-28T13:42:36;6.09;43.33
40059;SHT31;25763;49.972;8.568;2023-02-28T13:47:45;6.19;43.98
40059;SHT31;25763;49.972;8.568;2023-02-28T13:50:27;6.34;43.89
40059;SHT31;25763;49.972;8.568;2023-02-28T14:01:08;5.91;44.13
40059;SHT31;25763;49.972;8.568;2023-02-28T14:03:53;6.03;44.29
40059;SHT31;25763;49.972;8.568;2023-02-28T14:06:26;6.26;43.89
40059;SHT31;25763;49.972;8.568;2023-02-28T14:08:59;6.47;44.19
40059;SHT31;25763;49.972;8.568;2023-02-28T14:11:32;6.37;43.53
40059;SHT31;25763;49.972;8.568;2023-02-28T14:13:58;6.26;44.10
40059;SHT31;25763;49.972;8.568;2023-02-28T14:16:26;6.27;43.82
40059;SHT31;25763;49.972;8.568;2023-02-28T14:19:00;6.15;44.40
40059;SHT31;25763;49.972;8.568;2023-02-28T14:21:33;6.09;44.97
40059;SHT31;25763;49.972;8.568;2023-02-28T14:27:21;5.82;44.29
40059;SHT31;25763;49.972;8.568;2023-02-28T14:34:58;6.42;43.94
40059;SHT31;25763;49.972;8.568;2023-02-28T14:37:33;6.23;43.77
40059;SHT31;25763;49.972;8.568;2023-02-28T14:40:00;6.61;45.00
40059;SHT31;25763;49.972;8.568;2023-02-28T14:42:35;6.34;44.50
40059;SHT31;25763;49.972;8.568;2023-02-28T14:45:01;6.33;44.69
40059;SHT31;25763;49.972;8.568;2023-02-28T14:50:52;6.15;45.02
40059;SHT31;25763;49.972;8.568;2023-02-28T14:53:20;6.03;44.44
40059;SHT31;25763;49.972;8.568;2023-02-28T14:55:48;6.12;44.46
40059;SHT31;25763;49.972;8.568;2023-02-28T14:58:39;6.05;46.13
40059;SHT31;25763;49.972;8.568;2023-02-28T15:01:05;5.99;45.22
40059;SHT31;25763;49.972;8.568;2023-02-28T15:03:33;6.13;45.19
40059;SHT31;25763;49.972;8.568;2023-02-28T15:06:01;5.80;45.05
40059;SHT31;25763;49.972;8.568;2023-02-28T15:08:29;5.75;45.22
40059;SHT31;25763;49.972;8.568;2023-02-28T15:11:00;5.67;45.47
40059;SHT31;25763;49.972;8.568;2023-02-28T15:13:38;5.81;45.52
40059;SHT31;25763;49.972;8.568;2023-02-28T15:16:08;5.89;45.73
40059;SHT31;25763;49.972;8.568;2023-02-28T15:21:17;5.78;45.81
40059;SHT31;25763;49.972;8.568;2023-02-28T15:23:46;5.78;45.42
40059;SHT31;25763;49.972;8.568;2023-02-28T15:26:19;5.85;45.61
40059;SHT31;25763;49.972;8.568;2023-02-28T15:28:46;5.78;44.98
40059;SHT31;25763;49.972;8.568;2023-02-28T15:31:43;5.84;45.28
40059;SHT31;25763;49.972;8.568;2023-02-28T15:34:42;5.69;45.96
40059;SHT31;25763;49.972;8.568;2023-02-28T15:39:53;5.73;46.31
40059;SHT31;25763;49.972;8.568;2023-02-28T15:42:21;5.71;46.17
40059;SHT31;25763;49.972;8.568;2023-02-28T15:44:47;5.74;46.29
40059;SHT31;25763;49.972;8.568;2023-02-28T15:47:19;5.64;46.06
40059;SHT31;25763;49.972;8.568;2023-02-28T15:49:58;5.74;46.75
40059;SHT31;25763;49.972;8.568;2023-02-28T15:52:29;5.87;47.07
40059;SHT31;25763;49.972;8.568;2023-02-28T15:54:59;5.87;47.01
40059;SHT31;25763;49.972;8.568;2023-02-28T15:57:31;5.80;46.80
40059;SHT31;25763;49.972;8.568;2023-02-28T16:00:00;5.69;46.65
40059;SHT31;25763;49.972;8.568;2023-02-28T16:02:34;5.77;46.94
40059;SHT31;25763;49.972;8.568;2023-02-28T16:07:28;5.69;46.94
40059;SHT31;25763;49.972;8.568;2023-02-28T16:09:54;5.60;47.56
40059;SHT31;25763;49.972;8.568;2023-02-28T16:12:21;5.64;47.46
40059;SHT31;25763;49.972;8.568;2023-02-28T16:14:50;5.54;47.22
40059;SHT31;25763;49.972;8.568;2023-02-28T16:17:21;5.54;47.33
40059;SHT31;25763;49.972;8.568;2023-02-28T16:19:47;5.54;47.76
40059;SHT31;25763;49.972;8.568;2023-02-28T16:22:12;5.46;47.37
40059;SHT31;25763;49.972;8.568;2023-02-28T16:24:38;5.43;47.76
40059;SHT31;25763;49.972;8.568;2023-02-28T16:27:04;5.30;48.10
40059;SHT31;25763;49.972;8.568;2023-02-28T16:29:32;5.21;48.28
40059;SHT31;25763;49.972;8.568;2023-02-28T16:31:59;5.15;48.71
40059;SHT31;25763;49.972;8.568;2023-02-28T16:34:25;5.11;49.08
40059;SHT31;25763;49.972;8.568;2023-02-28T16:36:50;5.08;49.27
40059;SHT31;25763;49.972;8.568;2023-02-28T16:39:16;5.00;49.58
40059;SHT31;25763;49.972;8.568;2023-02-28T16:41:43;5.03;49.76
40059;SHT31;25763;49.972;8.568;2023-02-28T16:44:38;4.94;50.10
40059;SHT31;25763;49.972;8.568;2023-02-28T16:47:03;4.84;50.03
40059;SHT31;25763;49.972;8.568;2023-02-28T16:49:29;4.81;50.27
40059;SHT31;25763;49.972;8.568;2023-02-28T16:51:55;4.81;50.29
40059;SHT31;25763;49.972;8.568;2023-02-28T16:54:20;4.72;50.80
40059;SHT31;25763;49.972;8.568;2023-02-28T16:56:47;4.66;50.90
40059;SHT31;25763;49.972;8.568;2023-02-28T16:59:15;4.59;51.23
40059;SHT31;25763;49.972;8.568;2023-02-28T17:01:43;4.55;51.51
40059;SHT31;25763;49.972;8.568;2023-02-28T17:04:10;4.53;51.41
40059;SHT31;25763;49.972;8.568;2023-02-28T17:06:36;4.49;51.85
40059;SHT31;25763;49.972;8.568;2023-02-28T17:09:01;4.42;51.70
40059;SHT31;25763;49.972;8.568;2023-02-28T17:11:27;4.42;52.04
40059;SHT31;25763;49.972;8.568;2023-02-28T17:13:52;4.36;51.73
40059;SHT31;25763;49.972;8.568;2023-02-28T17:16:32;4.31;52.11
40059;SHT31;25763;49.972;8.568;2023-02-28T17:19:00;4.27;52.19
40059;SHT31;25763;49.972;8.568;2023-02-28T17:21:26;4.22;52.38
40059;SHT31;25763;49.972;8.568;2023-02-28T17:23:52;4.18;52.14
40059;SHT31;25763;49.972;8.568;2023-02-28T17:26:20;4.14;52.26
40059;SHT31;25763;49.972;8.568;2023-02-28T17:28:48;4.13;52.39
40059;SHT31;25763;49.972;8.568;2023-02-28T17:31:14;4.09;52.69
40059;SHT31;25763;49.972;8.568;2023-02-28T17:33:40;4.09;52.65
40059;SHT31;25763;49.972;8.568;2023-02-28T17:36:06;4.01;52.90
40059;SHT31;25763;49.972;8.568;2023-02-28T17:38:31;3.96;53.11
40059;SHT31;25763;49.972;8.568;2023-02-28T17:40:57;3.92;53.21
40059;SHT31;25763;49.972;8.568;2023-02-28T17:43:24;3.89;53.13
40059;SHT31;25763;49.972;8.568;2023-02-28T17:45:50;3.89;53.28
40059;SHT31;25763;49.972;8.568;2023-02-28T17:48:16;3.86;53.45
40059;SHT31;25763;49.972;8.568;2023-02-28T17:50:42;3.81;53.72
40059;SHT31;25763;49.972;8.568;2023-02-28T17:53:07;3.78;53.73
40059;SHT31;25763;49.972;8.568;2023-02-28T17:55:33;3.74;53.65
40059;SHT31;25763;49.972;8.568;2023-02-28T17:57:59;3.69;54.11
40059;SHT31;25763;49.972;8.568;2023-02-28T18:00:25;3.68;53.95
40059;SHT31;25763;49.972;8.568;2023-02-28T18:02:50;3.62;54.25
40059;SHT31;25763;49.972;8.568;2023-02-28T18:05:16;3.64;54.42
40059;SHT31;25763;49.972;8.568;2023-02-28T18:07:42;3.57;54.40
40059;SHT31;25763;49.972;8.568;2023-02-28T18:12:47;3.51;54.50
40059;SHT31;25763;49.972;8.568;2023-02-28T18:15:14;3.47;54.82
40059;SHT31;25763;49.972;8.568;2023-02-28T18:17:40;3.46;54.95